Time;durP1;ratioP1;P1;durP2;ratioP2;P2;SDS_P1;SDS_P2;PMS_P1;PMS_P2;Temp;Humidity;BMP_temperature;BMP_pressure;BME280_temperature;BME280_humidity;BME280_pressure;Samples;Min_cycle;Max_cycle;Signal;HPM_P1;HPM_P2
2023/10/13 00:02:03;;;;;;;;;;;;;;;27.45;43.15;94540.63;5014116;28;7158;-61
2023/10/13 00:04:31;;;;;;;;;;;;;;;27.45;43.15;94540.63;5016116;28;9436;-62
2023/10/13 00:07:08;;;;;;;;;;;;;;;27.44;43.51;94535.63;4995192;28;9245;-62
2023/10/13 00:09:47;;;;;;;;;;;;;;;27.44;42.67;94535.63;4997333;28;7356;-62
2023/10/13 00:12:23;;;;;;;;;;;;;;;27.44;43.20;94535.63;4994912;28;7109;-62
2023/10/13 00:15:27;;;;;;;;;;;;;;;27.43;43.22;94531.34;4992931;28;7215;-62
2023/10/13 00:18:12;;;;;;;;;;;;;;;27.41;43.13;94531.13;4924979;28;6986;-62
2023/10/13 00:20:49;;;;;;;;;;;;;;;27.42;43.24;94521.59;4917560;29;8946;-62
2023/10/13 00:23:26;;;;;;;;;;;;;;;27.41;43.14;94514.56;4954476;28;7432;-62
2023/10/13 00:26:02;;;;;;;;;;;;;;;27.40;43.27;94519.34;4986444;28;8806;-62
2023/10/13 00:28:43;;;;;;;;;;;;;;;27.39;43.27;94517.84;4979967;28;9049;-62
2023/10/13 00:31:13;;;;;;;;;;;;;;;27.39;43.18;94522.63;4985382;28;9194;-62
2023/10/13 00:33:46;;;;;;;;;;;;;;;27.40;43.25;94519.34;4974276;28;9130;-62
2023/10/13 00:36:19;;;;;;;;;;;;;;;27.40;43.17;94521.34;4964155;28;9231;-62
2023/10/13 00:38:48;;;;;;;;;;;;;;;27.39;43.25;94528.91;4994405;28;7664;-62
2023/10/13 00:44:16;;;;;;;;;;;;;;;27.36;43.48;94513.34;4965216;28;7456;-62
2023/10/13 00:47:02;;;;;;;;;;;;;;;27.39;42.99;94519.84;4971347;28;7113;-62
2023/10/13 00:49:39;;;;;;;;;;;;;;;27.38;43.54;94524.63;4957993;28;7149;-62
2023/10/13 00:52:12;;;;;;;;;;;;;;;27.37;43.10;94517.63;4979548;28;7873;-62
2023/10/13 00:55:13;;;;;;;;;;;;;;;27.35;43.43;94511.88;5035042;28;7279;-62
2023/10/13 00:57:47;;;;;;;;;;;;;;;27.36;43.32;94524.41;4986948;28;8439;-62
2023/10/13 01:00:28;;;;;;;;;;;;;;;27.36;42.98;94520.91;5012052;28;7058;-62
2023/10/13 01:03:07;;;;;;;;;;;;;;;27.35;42.98;94517.38;4997755;28;7620;-62
2023/10/13 01:05:41;;;;;;;;;;;;;;;27.36;43.64;94516.09;4976354;28;7220;-62
2023/10/13 01:08:15;;;;;;;;;;;;;;;27.36;43.33;94512.63;4992342;28;8889;-62
2023/10/13 01:10:43;;;;;;;;;;;;;;;27.32;43.41;94515.63;4976214;28;7705;-62
2023/10/13 01:13:27;;;;;;;;;;;;;;;27.35;43.25;94517.38;4999992;28;7250;-61
2023/10/13 01:15:53;;;;;;;;;;;;;;;27.34;43.43;94513.09;4998596;28;8794;-63
2023/10/13 01:18:20;;;;;;;;;;;;;;;27.36;43.28;94512.63;4990439;28;7475;-62
2023/10/13 01:20:59;;;;;;;;;;;;;;;27.36;43.20;94512.63;4992562;28;7274;-63
2023/10/13 01:23:28;;;;;;;;;;;;;;;27.33;43.09;94497.81;4996619;28;7246;-63
2023/10/13 01:25:58;;;;;;;;;;;;;;;27.35;43.04;94503.59;4991259;28;7276;-63
2023/10/13 01:28:50;;;;;;;;;;;;;;;27.36;43.26;94496.78;4979703;28;7265;-63
2023/10/13 01:31:53;;;;;;;;;;;;;;;27.35;43.34;94500.81;4992614;28;6981;-63
2023/10/13 01:34:49;;;;;;;;;;;;;;;27.35;43.17;94500.03;5013083;28;7013;-63
2023/10/13 01:37:19;;;;;;;;;;;;;;;27.33;43.28;94492.28;4964579;28;8798;-63
2023/10/13 01:40:07;;;;;;;;;;;;;;;27.34;43.03;94493.75;4959099;28;7244;-62
2023/10/13 01:42:36;;;;;;;;;;;;;;;27.32;43.22;94492.78;4969353;28;8533;-62
2023/10/13 01:45:13;;;;;;;;;;;;;;;27.34;43.17;94504.09;4990804;28;8212;-63
2023/10/13 01:47:45;;;;;;;;;;;;;;;27.31;42.98;94503.09;4991392;28;8758;-63
2023/10/13 01:50:28;;;;;;;;;;;;;;;27.32;43.36;94493.53;4975110;28;6994;-63
2023/10/13 01:53:11;;;;;;;;;;;;;;;27.33;43.16;94492.28;4975416;28;8831;-63
2023/10/13 01:56:11;;;;;;;;;;;;;;;27.32;43.01;94495.53;4974641;28;7258;-63
2023/10/13 01:58:47;;;;;;;;;;;;;;;27.32;43.30;94495.53;4917185;29;7090;-63
2023/10/13 02:01:34;;;;;;;;;;;;;;;27.30;43.15;94493.31;4911481;29;8499;-63
2023/10/13 02:04:11;;;;;;;;;;;;;;;27.28;43.33;94484.03;4933516;29;6989;-63
2023/10/13 02:06:46;;;;;;;;;;;;;;;27.30;44.01;94487.78;4917252;29;9234;-63
2023/10/13 02:09:44;;;;;;;;;;;;;;;27.30;43.29;94485.03;4967735;28;9268;-63
2023/10/13 02:12:29;;;;;;;;;;;;;;;27.28;43.19;94498.59;4948637;28;7619;-63
2023/10/13 02:14:57;;;;;;;;;;;;;;;27.29;42.92;94483.53;4977430;28;9634;-63
2023/10/13 02:17:41;;;;;;;;;;;;;;;27.27;42.95;94482.56;4966854;28;7250;-62
2023/10/13 02:20:43;;;;;;;;;;;;;;;27.28;43.10;94487.56;4978370;28;9319;-63
2023/10/13 02:23:10;;;;;;;;;;;;;;;27.26;42.96;94481.06;4937202;28;7381;-58
2023/10/13 02:25:45;;;;;;;;;;;;;;;27.25;43.06;94469.25;4951491;28;7816;-57
2023/10/13 02:28:13;;;;;;;;;;;;;;;27.27;43.10;94479.81;4951674;28;7232;-56
2023/10/13 02:31:24;;;;;;;;;;;;;;;27.27;43.03;94482.56;4957188;28;9122;-57
2023/10/13 02:34:00;;;;;;;;;;;;;;;27.24;43.10;94467.78;4951916;28;7179;-56
2023/10/13 02:36:58;;;;;;;;;;;;;;;27.26;43.17;94470.00;4973929;28;7102;-56
2023/10/13 02:39:26;;;;;;;;;;;;;;;27.23;43.20;94466.28;4924780;29;9054;-56
2023/10/13 02:42:24;;;;;;;;;;;;;;;27.26;43.04;94470.00;4909822;29;8818;-56
2023/10/13 02:44:55;;;;;;;;;;;;;;;27.25;43.00;94472.00;4929342;29;7214;-56
2023/10/13 02:47:24;;;;;;;;;;;;;;;27.23;43.26;94469.03;4926317;29;6995;-56
2023/10/13 02:50:00;;;;;;;;;;;;;;;27.23;43.19;94466.28;4937495;28;7202;-57
2023/10/13 02:52:41;;;;;;;;;;;;;;;27.21;43.09;94460.53;4928368;28;7350;-57
2023/10/13 02:55:14;;;;;;;;;;;;;;;27.24;43.38;94467.03;4937761;28;7185;-57
2023/10/13 02:57:55;;;;;;;;;;;;;;;27.23;43.31;94466.28;4941430;28;7222;-57
2023/10/13 03:00:49;;;;;;;;;;;;;;;27.21;43.09;94463.28;4983623;28;7205;-57
2023/10/13 03:03:27;;;;;;;;;;;;;;;27.22;43.20;94469.56;4987605;28;7147;-56
2023/10/13 03:06:02;;;;;;;;;;;;;;;27.18;43.24;94461.56;4992327;28;8827;-56
2023/10/13 03:08:28;;;;;;;;;;;;;;;27.20;42.69;94467.31;4994484;28;7239;-56
2023/10/13 03:11:05;;;;;;;;;;;;;;;27.21;43.12;94468.81;5018137;28;7408;-57
2023/10/13 03:13:44;;;;;;;;;;;;;;;27.19;43.31;94468.56;5002036;28;7104;-56
2023/10/13 03:16:15;;;;;;;;;;;;;;;27.18;43.09;94466.34;5057194;28;7261;-56
2023/10/13 03:18:58;;;;;;;;;;;;;;;27.21;42.85;94462.56;5054602;28;7441;-56
2023/10/13 03:21:31;;;;;;;;;;;;;;;27.20;43.18;94467.31;5052963;28;9474;-56
2023/10/13 03:24:08;;;;;;;;;;;;;;;27.20;43.17;94461.81;5051654;28;8720;-56
2023/10/13 03:26:35;;;;;;;;;;;;;;;27.19;43.02;94463.06;5048454;28;8791;-56
2023/10/13 03:29:09;;;;;;;;;;;;;;;27.17;43.10;94462.84;5070211;28;8196;-56
2023/10/13 03:31:37;;;;;;;;;;;;;;;27.17;43.06;94449.03;5060464;28;7399;-56
2023/10/13 03:34:34;;;;;;;;;;;;;;;27.19;43.30;94460.28;5055689;28;7621;-63
2023/10/13 03:37:37;;;;;;;;;;;;;;;27.17;43.22;94457.31;5027564;28;7323;-62
2023/10/13 03:40:36;;;;;;;;;;;;;;;27.18;43.13;94452.53;5008647;28;7104;-63
2023/10/13 03:43:31;;;;;;;;;;;;;;;27.18;43.22;94449.78;5023501;28;9112;-62
2023/10/13 03:46:22;;;;;;;;;;;;;;;27.17;43.19;94445.50;5012089;28;7284;-63
2023/10/13 03:48:54;;;;;;;;;;;;;;;27.17;42.84;94446.25;5014885;28;7677;-63
2023/10/13 03:51:31;;;;;;;;;;;;;;;27.16;42.87;94450.31;5031665;28;7180;-62
2023/10/13 03:53:58;;;;;;;;;;;;;;;27.15;43.26;94443.28;5030225;28;7413;-63
2023/10/13 03:56:38;;;;;;;;;;;;;;;27.14;43.27;94447.31;5005765;28;7195;-63
2023/10/13 03:59:24;;;;;;;;;;;;;;;27.16;43.31;94447.53;5012931;28;7315;-63
2023/10/13 04:01:58;;;;;;;;;;;;;;;27.15;43.13;94443.28;5020122;28;7064;-63
2023/10/13 04:04:34;;;;;;;;;;;;;;;27.14;43.05;94444.56;5025802;28;7569;-62
2023/10/13 04:11:52;;;;;;;;;;;;;;;27.16;42.88;94438.50;5032049;28;7121;-62
2023/10/13 04:15:39;;;;;;;;;;;;;;;27.12;43.36;94433.25;5060902;28;7007;-63
2023/10/13 04:18:18;;;;;;;;;;;;;;;27.12;43.38;94422.22;5061675;28;7052;-62
2023/10/13 04:21:39;;;;;;;;;;;;;;;27.13;43.13;94426.47;5048343;28;7461;-63
2023/10/13 04:33:05;;;;;;;;;;;;;;;27.11;43.18;94414.47;5070680;28;7063;-63
2023/10/13 04:35:35;;;;;;;;;;;;;;;27.10;43.11;94415.75;5062820;28;7344;-63
2023/10/13 04:38:20;;;;;;;;;;;;;;;27.09;43.12;94409.47;5036597;28;7495;-63
2023/10/13 04:41:22;;;;;;;;;;;;;;;27.08;43.29;94396.91;5046869;28;8105;-63
2023/10/13 04:52:26;;;;;;;;;;;;;;;27.08;43.37;94401.72;5021755;28;6972;-54
2023/10/13 04:58:00;;;;;;;;;;;;;;;27.07;43.14;94403.72;5042423;28;9069;-54
2023/10/13 06:28:57;;;;;;;;;;;;;;;26.98;43.11;94412.34;4977669;28;7263;-62
2023/10/13 06:31:26;;;;;;;;;;;;;;;26.96;43.56;94414.91;4980173;28;7262;-61
2023/10/13 06:33:55;;;;;;;;;;;;;;;26.97;43.31;94421.88;4963755;28;8802;-61
2023/10/13 06:36:23;;;;;;;;;;;;;;;26.95;43.34;94407.13;4993397;28;7247;-61
2023/10/13 06:41:40;;;;;;;;;;;;;;;26.95;43.26;94405.09;4950198;28;7013;-61
2023/10/13 06:44:14;;;;;;;;;;;;;;;26.95;43.10;94405.09;4955062;28;9057;-62
2023/10/13 06:46:40;;;;;;;;;;;;;;;26.96;43.31;94411.38;4935293;28;7403;-61
2023/10/13 06:49:08;;;;;;;;;;;;;;;26.93;43.30;94404.88;4938785;28;6979;-61
2023/10/13 06:51:46;;;;;;;;;;;;;;;26.97;43.15;94404.59;4938687;28;9562;-61
2023/10/13 06:54:20;;;;;;;;;;;;;;;26.97;42.95;94413.59;4963349;28;7309;-62
2023/10/13 06:56:57;;;;;;;;;;;;;;;26.98;43.03;94408.84;4954220;28;7170;-61
2023/10/13 06:59:27;;;;;;;;;;;;;;;26.96;43.52;94409.38;4974859;28;8329;-62
2023/10/13 07:01:53;;;;;;;;;;;;;;;26.96;43.29;94412.13;4992235;28;8852;-62
2023/10/13 07:04:22;;;;;;;;;;;;;;;26.97;42.94;94418.41;4973809;28;6993;-61
2023/10/13 07:06:50;;;;;;;;;;;;;;;26.92;43.28;94408.91;4980670;28;7106;-62
2023/10/13 07:09:49;;;;;;;;;;;;;;;26.95;43.37;94412.66;4970633;28;7233;-61
2023/10/13 07:12:26;;;;;;;;;;;;;;;26.93;42.96;94413.16;4992511;28;9545;-61
2023/10/13 07:15:10;;;;;;;;;;;;;;;26.94;43.40;94424.94;5008930;28;8829;-61
2023/10/13 07:17:45;;;;;;;;;;;;;;;26.96;43.25;94422.41;4993149;28;8164;-61
2023/10/13 07:20:15;;;;;;;;;;;;;;;26.93;43.14;94426.97;5055552;28;9123;-61
2023/10/13 07:22:54;;;;;;;;;;;;;;;26.90;43.48;94414.22;5071002;28;7298;-61
2023/10/13 07:25:26;;;;;;;;;;;;;;;26.94;43.17;94427.72;5070641;28;7183;-55
2023/10/13 07:27:56;;;;;;;;;;;;;;;26.94;43.31;94430.47;5051040;28;8196;-55
2023/10/13 07:30:26;;;;;;;;;;;;;;;26.94;43.19;94422.19;5070419;28;9077;-55
2023/10/13 07:33:10;;;;;;;;;;;;;;;26.94;42.98;94430.47;5062037;28;7030;-55
2023/10/13 07:35:41;;;;;;;;;;;;;;;26.94;43.19;94422.19;5071964;28;7282;-55
2023/10/13 07:38:30;;;;;;;;;;;;;;;26.96;43.24;94433.47;5062923;28;7281;-56
2023/10/13 07:41:10;;;;;;;;;;;;;;;26.98;43.23;94439.22;5045170;28;7510;-55
2023/10/13 07:43:59;;;;;;;;;;;;;;;26.96;43.02;94436.22;5052744;28;7265;-55
2023/10/13 07:46:31;;;;;;;;;;;;;;;26.93;43.40;94432.47;5053634;28;8747;-56
2023/10/13 07:49:10;;;;;;;;;;;;;;;26.98;43.34;94441.97;5058314;28;9059;-55
2023/10/13 07:51:51;;;;;;;;;;;;;;;26.95;43.02;94435.47;5069393;28;7432;-55
2023/10/13 07:54:22;;;;;;;;;;;;;;;26.98;43.30;94442.72;5054133;28;7621;-55
2023/10/13 07:57:08;;;;;;;;;;;;;;;26.98;43.19;94437.19;5036952;28;8895;-56
2023/10/13 07:59:51;;;;;;;;;;;;;;;26.99;43.22;94437.94;5056190;28;7857;-56
2023/10/13 08:08:34;;;;;;;;;;;;;;;26.98;43.12;94439.97;4997059;28;7091;-56
2023/10/13 08:11:10;;;;;;;;;;;;;;;26.96;43.22;94431.47;4994241;28;9566;-56
2023/10/13 08:13:59;;;;;;;;;;;;;;;26.97;43.12;94426.69;4989550;28;9197;-55
2023/10/13 08:16:45;;;;;;;;;;;;;;;26.97;43.21;94419.13;4970399;28;7260;-55
2023/10/13 08:19:16;;;;;;;;;;;;;;;26.96;43.21;94425.94;4997369;28;7330;-55
2023/10/13 08:24:55;;;;;;;;;;;;;;;27.01;43.13;94427.88;4985271;28;6991;-55
2023/10/13 08:35:10;;;;;;;;;;;;;;;27.04;43.31;94420.56;4975493;28;9395;-62
2023/10/13 08:37:59;;;;;;;;;;;;;;;27.01;43.45;94421.63;4994407;28;7275;-62
2023/10/13 08:43:39;;;;;;;;;;;;;;;27.03;42.76;94414.31;5057399;28;8748;-63
2023/10/13 08:46:24;;;;;;;;;;;;;;;27.04;42.89;94421.31;5078177;28;6983;-62
2023/10/13 08:49:15;;;;;;;;;;;;;;;27.04;43.17;94421.31;5052595;28;8498;-62
2023/10/13 08:52:06;;;;;;;;;;;;;;;27.05;42.70;94422.06;5059622;28;7178;-62
2023/10/13 08:54:38;;;;;;;;;;;;;;;27.04;43.15;94417.81;5067829;28;8881;-62
2023/10/13 09:00:03;;;;;;;;;;;;;;;27.02;43.32;94415.56;5053148;28;7226;-62
2023/10/13 09:06:00;;;;;;;;;;;;;;;27.02;43.00;94410.03;5052332;28;7237;-62
2023/10/13 09:11:27;;;;;;;;;;;;;;;27.03;43.10;94411.56;5068395;28;7877;-62
2023/10/13 09:14:03;;;;;;;;;;;;;;;27.03;42.94;94408.78;5043568;28;9110;-62
2023/10/13 09:19:11;;;;;;;;;;;;;;;27.01;43.24;94405.81;5056973;28;8538;-62
2023/10/13 09:22:03;;;;;;;;;;;;;;;27.04;43.04;94399.22;5077911;28;6993;-63
2023/10/13 09:24:38;;;;;;;;;;;;;;;27.05;42.87;94397.97;5061963;28;7029;-62
2023/10/13 09:27:13;;;;;;;;;;;;;;;27.07;42.96;94400.97;5052212;28;9252;-62
2023/10/13 09:29:41;;;;;;;;;;;;;;;27.06;43.02;94395.94;5065586;28;9413;-62
2023/10/13 09:32:19;;;;;;;;;;;;;;;27.06;42.92;94399.47;5036609;28;9138;-62
2023/10/13 09:35:01;;;;;;;;;;;;;;;27.07;42.95;94391.94;5052800;28;9021;-62
2023/10/13 09:37:40;;;;;;;;;;;;;;;27.05;43.10;94388.94;5067215;28;8427;-62
2023/10/13 09:40:33;;;;;;;;;;;;;;;27.09;43.09;94392.16;5072669;28;6999;-62
2023/10/13 09:43:07;;;;;;;;;;;;;;;27.06;43.08;94382.88;5082736;28;7327;-62
2023/10/13 09:46:15;;;;;;;;;;;;;;;27.11;43.23;94386.84;5091018;28;9197;-56
2023/10/13 09:49:04;;;;;;;;;;;;;;;27.07;43.20;94387.16;5057931;28;7234;-56
2023/10/13 09:51:33;;;;;;;;;;;;;;;27.09;42.53;94383.88;5072209;28;9521;-56
2023/10/13 09:54:41;;;;;;;;;;;;;;;27.09;43.05;94384.63;5055985;28;6998;-56
2023/10/13 09:57:44;;;;;;;;;;;;;;;27.11;43.39;94382.09;5004706;28;6986;-56
2023/10/13 10:00:58;;;;;;;;;;;;;;;27.14;43.08;94380.31;4955438;28;7221;-57
2023/10/13 10:06:18;;;;;;;;;;;;;;;27.12;43.14;94371.78;4907449;29;7647;-56
2023/10/13 10:09:43;;;;;;;;;;;;;;;27.13;43.11;94370.50;4892965;29;7284;-57
2023/10/13 10:12:55;;;;;;;;;;;;;;;27.11;43.55;94364.75;4859422;29;7115;-56
2023/10/13 10:15:47;;;;;;;;;;;;;;;27.14;43.02;94361.72;4828436;29;7497;-56
2023/10/13 10:18:29;;;;;;;;;;;;;;;27.10;43.81;94352.97;4849788;29;7249;-57
2023/10/13 10:21:22;;;;;;;;;;;;;;;27.12;43.67;94353.19;4834154;29;7257;-56
2023/10/13 10:23:54;;;;;;;;;;;;;;;27.15;43.58;94351.41;4844453;29;7100;-56
2023/10/13 10:26:21;;;;;;;;;;;;;;;27.18;43.71;94353.13;4824930;29;7417;-56
2023/10/13 10:28:47;;;;;;;;;;;;;;;27.16;43.62;94339.84;4841845;29;9090;-56
2023/10/13 10:31:48;;;;;;;;;;;;;;;27.23;43.63;94349.56;4863109;29;9148;-57
2023/10/13 10:34:18;;;;;;;;;;;;;;;27.21;43.40;94344.53;4841594;29;7259;-56
2023/10/13 10:37:08;;;;;;;;;;;;;;;27.22;43.34;94343.28;4837745;29;8701;-57
2023/10/13 10:39:50;;;;;;;;;;;;;;;27.24;43.05;94346.28;4877021;29;7067;-57
2023/10/13 10:42:46;;;;;;;;;;;;;;;27.24;43.27;94343.50;4897377;29;7297;-57
2023/10/13 10:45:35;;;;;;;;;;;;;;;27.24;42.99;94331.72;4908161;29;7062;-56
2023/10/13 10:48:31;;;;;;;;;;;;;;;27.22;42.95;94329.47;4958363;28;7246;-56
2023/10/13 10:51:06;;;;;;;;;;;;;;;27.23;43.21;94321.94;4990489;28;7266;-56
2023/10/13 10:53:43;;;;;;;;;;;;;;;27.24;43.08;94323.44;4965957;28;7200;-55
2023/10/13 10:56:20;;;;;;;;;;;;;;;27.24;43.26;94320.66;4994703;28;7202;-55
2023/10/13 10:58:48;;;;;;;;;;;;;;;27.25;43.66;94317.38;4969125;28;8849;-54
2023/10/13 11:01:21;;;;;;;;;;;;;;;27.25;42.96;94311.13;4982338;28;8649;-55
2023/10/13 11:07:21;;;;;;;;;;;;;;;27.26;43.35;94304.31;4974363;28;7799;-55
2023/10/13 11:10:11;;;;;;;;;;;;;;;27.27;43.24;94305.81;5016078;28;7335;-55
2023/10/13 11:12:39;;;;;;;;;;;;;;;27.27;43.21;94305.81;5069751;28;7484;-55
2023/10/13 11:15:14;;;;;;;;;;;;;;;27.23;42.90;94295.06;5061906;28;7405;-55
2023/10/13 11:17:51;;;;;;;;;;;;;;;27.29;42.56;94286.72;5051881;28;7288;-56
2023/10/13 11:20:25;;;;;;;;;;;;;;;27.29;42.56;94295.75;5060688;28;8054;-55
2023/10/13 11:23:15;;;;;;;;;;;;;;;27.28;43.03;94285.97;5055114;28;9286;-55
2023/10/13 11:25:58;;;;;;;;;;;;;;;27.28;42.99;94280.44;5054539;28;7062;-55
2023/10/13 11:28:29;;;;;;;;;;;;;;;27.26;43.24;94271.19;5053933;28;7097;-55
2023/10/13 11:31:19;;;;;;;;;;;;;;;27.31;43.30;94271.09;5053292;28;9045;-55
2023/10/13 11:33:56;;;;;;;;;;;;;;;27.28;42.99;94265.88;5069026;28;7269;-53
2023/10/13 11:36:53;;;;;;;;;;;;;;;27.31;42.92;94268.34;5071141;28;8748;-55
2023/10/13 11:39:24;;;;;;;;;;;;;;;27.34;43.08;94261.03;5011093;28;8714;-54
2023/10/13 11:41:53;;;;;;;;;;;;;;;27.35;42.75;94263.28;5011879;28;7306;-55
2023/10/13 11:44:26;;;;;;;;;;;;;;;27.33;42.88;94260.28;5011676;28;6918;-56
2023/10/13 11:47:32;;;;;;;;;;;;;;;27.31;43.71;94251.78;5010623;28;7261;-55
2023/10/13 11:50:05;;;;;;;;;;;;;;;27.31;43.07;94249.00;5033753;28;8710;-55
2023/10/13 11:52:33;;;;;;;;;;;;;;;27.34;43.16;94244.47;5017228;28;9385;-55
2023/10/13 11:55:04;;;;;;;;;;;;;;;27.37;43.01;94243.41;5014969;28;9201;-55
2023/10/13 11:58:09;;;;;;;;;;;;;;;27.40;42.76;94240.38;5012657;28;7345;-55
2023/10/13 12:11:54;;;;;;;;;;;;;;;27.51;42.84;94231.88;4912443;29;7027;-57
2023/10/13 12:14:52;;;;;;;;;;;;;;;27.53;42.66;94215.50;4916317;29;7153;-56
2023/10/13 12:17:36;;;;;;;;;;;;;;;27.55;42.91;94215.00;4874946;29;7525;-56
2023/10/13 12:20:18;;;;;;;;;;;;;;;27.57;42.53;94212.47;4891305;29;7393;-57
2023/10/13 12:22:54;;;;;;;;;;;;;;;27.57;42.58;94213.22;4877394;29;9060;-57
2023/10/13 12:28:12;;;;;;;;;;;;;;;27.59;42.67;94210.66;4880634;29;9123;-57
2023/10/13 12:30:50;;;;;;;;;;;;;;;27.63;42.54;94205.56;4893627;28;8819;-56
2023/10/13 12:33:24;;;;;;;;;;;;;;;27.66;42.59;94208.53;4947996;28;7148;-56
2023/10/13 12:36:09;;;;;;;;;;;;;;;27.69;42.61;94205.47;4957505;28;9142;-56
2023/10/13 12:50:12;;;;;;;;;;;;;;;27.78;42.77;94187.72;5058502;28;6952;-56
2023/10/13 12:52:50;;;;;;;;;;;;;;;27.83;42.90;94184.13;5077619;28;8778;-57
2023/10/13 12:55:24;;;;;;;;;;;;;;;27.85;42.27;94181.56;5054330;28;7260;-57
2023/10/13 12:57:51;;;;;;;;;;;;;;;27.84;42.50;94180.81;5054577;28;8216;-56
2023/10/13 13:00:21;;;;;;;;;;;;;;;27.87;42.23;94173.47;5063443;28;7335;-56
2023/10/13 13:03:15;;;;;;;;;;;;;;;27.87;42.51;94174.22;5047463;28;7264;-56
2023/10/13 13:05:44;;;;;;;;;;;;;;;27.90;42.31;94170.41;5039070;28;8961;-57
2023/10/13 13:08:22;;;;;;;;;;;;;;;27.90;42.62;94162.13;5031196;28;9278;-57
2023/10/13 13:11:02;;;;;;;;;;;;;;;27.94;42.67;94167.31;5023754;28;6984;-57
2023/10/13 13:13:31;;;;;;;;;;;;;;;27.94;42.71;94157.03;5042619;28;7643;-55
2023/10/13 13:15:58;;;;;;;;;;;;;;;27.99;42.07;94152.69;5030927;28;7497;-55
2023/10/13 13:18:34;;;;;;;;;;;;;;;27.99;42.05;94156.19;5022293;28;6983;-56
2023/10/13 13:21:06;;;;;;;;;;;;;;;28.03;42.22;94158.63;5032974;28;7080;-56
2023/10/13 13:23:34;;;;;;;;;;;;;;;28.03;42.37;94153.09;5039436;28;7294;-55
2023/10/13 13:26:17;;;;;;;;;;;;;;;28.04;42.62;94149.81;5009221;28;7049;-55
2023/10/13 13:28:57;;;;;;;;;;;;;;;28.07;42.02;94148.00;5052110;28;7037;-54
2023/10/13 13:31:32;;;;;;;;;;;;;;;28.08;42.25;94141.94;5042261;28;7276;-55
2023/10/13 13:34:09;;;;;;;;;;;;;;;28.12;42.50;94145.09;5026795;28;7091;-55
2023/10/13 13:36:37;;;;;;;;;;;;;;;28.16;41.78;94139.28;5027837;28;7227;-55
2023/10/13 13:39:18;;;;;;;;;;;;;;;28.18;42.92;94137.47;5029048;28;7244;-55
2023/10/13 13:42:17;;;;;;;;;;;;;;;28.22;41.85;94134.38;5048922;28;8695;-55
2023/10/13 13:44:48;;;;;;;;;;;;;;;28.25;42.27;94136.06;4994513;28;7455;-55
2023/10/13 13:47:20;;;;;;;;;;;;;;;28.28;42.18;94129.44;5005455;28;9240;-55
2023/10/13 13:49:51;;;;;;;;;;;;;;;28.29;41.98;94131.69;4995502;28;7231;-55
2023/10/13 13:52:56;;;;;;;;;;;;;;;28.31;42.21;94125.63;5005088;28;7035;-55
2023/10/13 13:55:51;;;;;;;;;;;;;;;28.33;42.34;94132.13;5016936;28;7185;-55
2023/10/13 13:58:18;;;;;;;;;;;;;;;28.34;42.52;94117.00;4926782;29;7238;-55
2023/10/13 14:01:00;;;;;;;;;;;;;;;28.37;42.52;94117.94;4927067;28;7207;-55
2023/10/13 14:03:31;;;;;;;;;;;;;;;28.37;42.35;94109.66;4932180;28;7014;-55
2023/10/13 14:06:17;;;;;;;;;;;;;;;28.40;41.53;94119.66;4936700;29;9341;-55
2023/10/13 14:08:56;;;;;;;;;;;;;;;28.44;42.02;94111.00;4931886;29;9073;-56
2023/10/13 14:17:09;;;;;;;;;;;;;;;28.52;41.64;94101.50;4944359;28;8812;-55
2023/10/13 14:19:40;;;;;;;;;;;;;;;28.53;41.56;94088.44;4936259;29;7172;-56
2023/10/13 14:22:24;;;;;;;;;;;;;;;28.56;41.77;94093.63;4959371;28;7235;-55
2023/10/13 14:24:58;;;;;;;;;;;;;;;28.60;41.55;94093.34;4974361;28;9271;-62
2023/10/13 14:27:29;;;;;;;;;;;;;;;28.61;42.29;94081.72;4978965;28;6969;-62
2023/10/13 14:30:19;;;;;;;;;;;;;;;28.65;42.02;94084.16;4967204;28;7145;-62
2023/10/13 14:32:58;;;;;;;;;;;;;;;28.65;41.70;94079.34;4967399;28;7516;-62
2023/10/13 14:35:49;;;;;;;;;;;;;;;28.71;42.02;94079.25;5052921;28;7590;-62
2023/10/13 14:38:19;;;;;;;;;;;;;;;28.71;41.54;94085.50;5070005;28;7253;-62
2023/10/13 14:40:48;;;;;;;;;;;;;;;28.74;41.63;94081.66;5090240;28;8950;-62
2023/10/13 14:43:49;;;;;;;;;;;;;;;28.79;41.61;94080.06;5058399;28;7456;-62
2023/10/13 14:46:30;;;;;;;;;;;;;;;28.80;41.39;94076.72;5002437;28;7219;-63
2023/10/13 14:49:02;;;;;;;;;;;;;;;28.83;41.84;94081.19;5002395;28;9278;-62
2023/10/13 14:51:29;;;;;;;;;;;;;;;28.83;42.05;94074.91;5005723;28;7280;-62
2023/10/13 14:53:59;;;;;;;;;;;;;;;28.82;42.02;94076.94;4987435;28;7356;-62
2023/10/13 14:56:26;;;;;;;;;;;;;;;28.86;41.93;94066.25;5010139;28;8821;-62
2023/10/13 14:58:54;;;;;;;;;;;;;;;28.87;41.76;94067.75;4997399;28;7309;-62
2023/10/13 15:01:26;;;;;;;;;;;;;;;28.91;41.82;94068.16;4996487;28;7238;-62
2023/10/13 15:03:57;;;;;;;;;;;;;;;28.96;40.76;94064.53;4993055;28;7117;-62
2023/10/13 15:06:29;;;;;;;;;;;;;;;28.99;41.21;94062.69;4988583;28;8739;-61
2023/10/13 15:08:58;;;;;;;;;;;;;;;28.98;41.51;94059.19;4996674;28;7082;-62
2023/10/13 15:11:35;;;;;;;;;;;;;;;29.02;41.29;94064.38;5007857;28;7283;-62
2023/10/13 15:14:08;;;;;;;;;;;;;;;29.05;40.98;94066.81;4979182;28;8245;-62
2023/10/13 15:16:34;;;;;;;;;;;;;;;29.03;41.53;94065.88;5006734;28;9218;-62
2023/10/13 15:19:10;;;;;;;;;;;;;;;29.07;40.81;94057.97;5018057;28;9209;-63
2023/10/13 15:21:41;;;;;;;;;;;;;;;29.07;41.07;94064.25;5019823;28;7418;-62
2023/10/13 15:24:21;;;;;;;;;;;;;;;29.07;41.67;94055.94;5062862;28;7247;-61
2023/10/13 15:26:48;;;;;;;;;;;;;;;29.09;41.51;94055.38;5049718;28;7985;-62
2023/10/13 15:29:35;;;;;;;;;;;;;;;29.09;41.77;94045.06;5066714;28;7023;-62
2023/10/13 15:34:48;;;;;;;;;;;;;;;29.12;41.01;94048.78;5060249;28;7016;-62
2023/10/13 15:37:25;;;;;;;;;;;;;;;29.16;40.82;94048.44;5039755;28;7084;-62
2023/10/13 15:39:52;;;;;;;;;;;;;;;29.16;41.33;94054.75;5061868;28;7736;-61
2023/10/13 15:42:26;;;;;;;;;;;;;;;29.14;41.38;94045.47;5060748;28;6999;-62
2023/10/13 15:44:54;;;;;;;;;;;;;;;29.15;41.61;94038.63;5053906;28;8162;-61
2023/10/13 15:47:20;;;;;;;;;;;;;;;29.15;41.93;94041.38;5052671;28;9009;-62
2023/10/13 15:50:06;;;;;;;;;;;;;;;29.15;41.53;94044.16;5067228;28;7103;-62
2023/10/13 15:52:38;;;;;;;;;;;;;;;29.12;41.38;94032.16;5054274;28;9103;-61
2023/10/13 15:55:17;;;;;;;;;;;;;;;29.13;40.95;94033.63;5054614;28;7978;-62
2023/10/13 15:57:44;;;;;;;;;;;;;;;29.15;41.77;94035.84;5060632;28;8747;-61
2023/10/13 16:00:23;;;;;;;;;;;;;;;29.13;41.48;94041.94;5052991;28;7183;-61
2023/10/13 16:02:56;;;;;;;;;;;;;;;29.13;41.92;94030.13;5044394;28;9388;-61
2023/10/13 16:05:42;;;;;;;;;;;;;;;29.12;41.75;94032.16;5068111;28;8981;-61
2023/10/13 16:08:14;;;;;;;;;;;;;;;29.10;41.44;94037.50;5039347;28;8981;-62
2023/10/13 16:10:43;;;;;;;;;;;;;;;29.08;40.71;94032.50;5053096;28;7089;-62
2023/10/13 16:13:15;;;;;;;;;;;;;;;29.09;41.93;94039.53;5044254;28;7358;-62
2023/10/13 16:15:42;;;;;;;;;;;;;;;29.03;41.89;94036.16;5042606;28;7248;-61
2023/10/13 16:18:09;;;;;;;;;;;;;;;29.05;41.49;94043.91;5077032;28;7238;-62
2023/10/13 16:20:36;;;;;;;;;;;;;;;28.99;41.94;94046.81;5053373;28;7260;-62
2023/10/13 16:23:10;;;;;;;;;;;;;;;28.94;41.26;94033.88;5089380;28;6988;-61
2023/10/13 16:25:36;;;;;;;;;;;;;;;28.95;41.66;94040.88;5055616;28;7238;-61
2023/10/13 16:28:04;;;;;;;;;;;;;;;28.91;41.57;94043.25;5055973;28;9131;-61
2023/10/13 16:30:30;;;;;;;;;;;;;;;28.92;41.74;94041.22;5057558;28;9341;-62
2023/10/13 16:32:56;;;;;;;;;;;;;;;28.87;41.75;94047.63;5037268;28;7880;-61
2023/10/13 16:35:36;;;;;;;;;;;;;;;28.84;41.78;94046.69;5051814;28;7091;-61
2023/10/13 16:38:06;;;;;;;;;;;;;;;28.83;42.36;94044.47;5076032;28;7634;-62
2023/10/13 16:40:34;;;;;;;;;;;;;;;28.80;41.52;94043.50;5077484;28;6992;-61
2023/10/13 16:43:00;;;;;;;;;;;;;;;28.77;41.54;94041.84;5048004;28;9674;-62
2023/10/13 16:45:31;;;;;;;;;;;;;;;28.76;42.23;94047.91;5059716;28;7239;-61
2023/10/13 16:47:57;;;;;;;;;;;;;;;28.69;42.05;94031.97;5034191;28;7236;-61
2023/10/13 16:50:26;;;;;;;;;;;;;;;28.71;41.89;94038.44;5070137;28;9088;-61
2023/10/13 16:52:56;;;;;;;;;;;;;;;28.70;42.26;94039.00;5067722;28;7268;-61
2023/10/13 16:55:28;;;;;;;;;;;;;;;28.69;41.87;94040.28;5051728;28;7336;-61
2023/10/13 16:58:05;;;;;;;;;;;;;;;28.67;41.89;94037.28;5056925;28;7269;-61
2023/10/13 17:00:46;;;;;;;;;;;;;;;28.70;42.04;94036.22;5056813;28;7238;-61
2023/10/13 17:03:29;;;;;;;;;;;;;;;28.70;41.87;94036.97;5079154;28;8791;-61
2023/10/13 17:06:01;;;;;;;;;;;;;;;28.71;42.23;94027.38;5042926;28;9079;-61
2023/10/13 17:08:31;;;;;;;;;;;;;;;28.71;41.29;94035.69;5052374;28;7003;-61